Time,TemperatureF,DewpointF,PressureIn,WindDirection,WindDirectionDegrees,WindSpeedMPH,WindSpeedGustMPH,Humidity,HourlyPrecipIn,Conditions,Clouds,dailyrainin,SoftwareType,DateUTC
2013-10-05 00:03:00,72.0,68.2,29.87,SSE,158,0.0,4.0,88,0.00,,,0.00,Wunderground v.1.15,2013-10-05 05:03:00,
2013-10-05 00:09:00,72.0,68.2,29.87,SSE,158,1.0,2.0,88,0.00,,,0.00,Wunderground v.1.15,2013-10-05 05:09:00,
2013-10-05 00:14:00,72.0,68.2,29.87,SSE,158,0.0,2.0,88,0.00,,,0.00,Wunderground v.1.15,2013-10-05 05:14:00,
2013-10-05 00:19:00,71.8,68.1,29.87,SSE,158,0.0,0.0,88,0.00,,,0.00,Wunderground v.1.15,2013-10-05 05:19:00,
2013-10-05 00:25:00,71.6,68.2,29.87,SSE,158,0.0,0.0,89,0.00,,,0.00,Wunderground v.1.15,2013-10-05 05:25:00,
2013-10-05 00:30:00,71.6,68.2,29.87,SSE,158,0.0,0.0,89,0.00,,,0.00,Wunderground v.1.15,2013-10-05 05:30:00,
2013-10-05 00:36:00,71.6,68.2,29.87,SSE,158,0.0,0.0,89,0.00,,,0.00,Wunderground v.1.15,2013-10-05 05:36:00,
2013-10-05 00:41:00,71.5,68.1,29.87,SSE,158,0.0,0.0,89,0.00,,,0.00,Wunderground v.1.15,2013-10-05 05:41:00,
2013-10-05 00:47:00,71.5,68.1,29.87,SSE,158,0.0,2.0,89,0.00,,,0.00,Wunderground v.1.15,2013-10-05 05:47:00,
2013-10-05 00:52:00,71.3,68.2,29.87,SSE,158,0.0,2.0,90,0.00,,,0.00,Wunderground v.1.15,2013-10-05 05:52:00,
2013-10-05 00:57:00,71.5,68.4,29.87,SSE,158,0.0,2.0,90,0.00,,,0.00,Wunderground v.1.15,2013-10-05 05:57:00,
2013-10-05 01:03:00,71.5,68.4,29.87,SSE,158,0.0,2.0,90,0.00,,,0.00,Wunderground v.1.15,2013-10-05 06:03:00,
2013-10-05 01:08:00,71.5,68.4,29.87,SSE,160,0.0,2.0,90,0.00,,,0.00,Wunderground v.1.15,2013-10-05 06:08:00,
2013-10-05 01:14:00,71.5,68.4,29.87,SSE,164,3.0,3.0,90,0.00,,,0.00,Wunderground v.1.15,2013-10-05 06:14:00,
2013-10-05 01:19:00,71.6,68.2,29.87,SSE,168,0.0,4.0,89,0.00,,,0.00,Wunderground v.1.15,2013-10-05 06:19:00,
2013-10-05 01:25:00,71.6,68.2,29.87,SSE,148,3.0,3.0,89,0.00,,,0.00,Wunderground v.1.15,2013-10-05 06:25:00,
2013-10-05 01:30:00,71.8,68.4,29.87,SE,126,3.0,3.0,89,0.00,,,0.00,Wunderground v.1.15,2013-10-05 06:30:00,
2013-10-05 01:35:00,71.8,68.4,29.87,SE,127,0.0,2.0,89,0.00,,,0.00,Wunderground v.1.15,2013-10-05 06:35:00,
2013-10-05 01:41:00,72.0,68.6,29.88,SE,128,0.0,3.0,89,0.00,,,0.00,Wunderground v.1.15,2013-10-05 06:41:00,
2013-10-05 01:46:00,72.0,68.6,29.88,ESE,121,3.0,3.0,89,0.00,,,0.00,Wunderground v.1.15,2013-10-05 06:46:00,
2013-10-05 01:52:00,72.0,68.2,29.88,ESE,121,0.0,3.0,88,0.00,,,0.00,Wunderground v.1.15,2013-10-05 06:52:00,
2013-10-05 01:57:00,72.0,68.2,29.88,ESE,121,0.0,1.0,88,0.00,,,0.00,Wunderground v.1.15,2013-10-05 06:57:00,
2013-10-05 02:02:00,71.8,68.1,29.88,SSE,151,0.0,3.0,88,0.00,,,0.00,Wunderground v.1.15,2013-10-05 07:02:00,
2013-10-05 02:07:00,71.8,68.4,29.88,SSE,151,0.0,1.0,89,0.00,,,0.00,Wunderground v.1.15,2013-10-05 07:07:00,
2013-10-05 02:12:00,71.8,68.4,29.88,SSE,151,0.0,3.0,89,0.00,,,0.00,Wunderground v.1.15,2013-10-05 07:12:00,
2013-10-05 02:17:00,71.8,68.4,29.88,SSE,151,0.0,2.0,89,0.00,,,0.00,Wunderground v.1.15,2013-10-05 07:17:00,
2013-10-05 02:22:00,71.6,68.2,29.88,SSE,161,1.0,3.0,89,0.00,,,0.00,Wunderground v.1.15,2013-10-05 07:22:00,
2013-10-05 02:27:00,71.6,68.2,29.88,SSE,161,0.0,3.0,89,0.00,,,0.00,Wunderground v.1.15,2013-10-05 07:27:00,
2013-10-05 02:32:00,71.6,68.2,29.88,South,190,1.0,5.0,89,0.00,,,0.00,Wunderground v.1.15,2013-10-05 07:32:00,
2013-10-05 02:37:00,71.6,68.2,29.88,SSE,150,1.0,3.0,89,0.00,,,0.00,Wunderground v.1.15,2013-10-05 07:37:00,
2013-10-05 02:42:00,71.6,68.2,29.87,SSE,156,0.0,4.0,89,0.00,,,0.00,Wunderground v.1.15,2013-10-05 07:42:00,
2013-10-05 02:47:00,71.6,68.2,29.87,SSE,156,0.0,3.0,89,0.00,,,0.00,Wunderground v.1.15,2013-10-05 07:47:00,
2013-10-05 02:52:00,71.6,68.2,29.87,SSE,150,0.0,4.0,89,0.00,,,0.00,Wunderground v.1.15,2013-10-05 07:52:00,
2013-10-05 02:57:00,71.6,68.2,29.86,SSE,150,0.0,2.0,89,0.00,,,0.00,Wunderground v.1.15,2013-10-05 07:57:00,
2013-10-05 03:02:00,71.6,68.2,29.86,SE,139,2.0,4.0,89,0.00,,,0.00,Wunderground v.1.15,2013-10-05 08:02:00,
2013-10-05 03:07:00,71.6,68.2,29.86,SE,135,4.0,4.0,89,0.00,,,0.00,Wunderground v.1.15,2013-10-05 08:07:00,
2013-10-05 03:12:00,71.6,68.2,29.86,SE,129,5.0,5.0,89,0.00,,,0.00,Wunderground v.1.15,2013-10-05 08:12:00,
2013-10-05 03:17:00,71.6,68.2,29.86,SSE,148,1.0,4.0,89,0.00,,,0.00,Wunderground v.1.15,2013-10-05 08:17:00,
2013-10-05 03:22:00,71.6,68.2,29.86,SSE,148,0.0,4.0,89,0.00,,,0.00,Wunderground v.1.15,2013-10-05 08:22:00,
2013-10-05 03:27:00,71.6,68.2,29.85,SSE,148,0.0,3.0,89,0.00,,,0.00,Wunderground v.1.15,2013-10-05 08:27:00,
2013-10-05 03:32:00,71.6,68.2,29.85,SSE,148,0.0,3.0,89,0.00,,,0.00,Wunderground v.1.15,2013-10-05 08:32:00,
2013-10-05 03:37:00,71.6,68.2,29.85,SSE,152,2.0,4.0,89,0.00,,,0.00,Wunderground v.1.15,2013-10-05 08:37:00,
2013-10-05 03:42:00,71.8,68.4,29.85,SSE,150,0.0,4.0,89,0.00,,,0.00,Wunderground v.1.15,2013-10-05 08:42:00,
2013-10-05 03:47:00,71.8,68.4,29.85,SE,134,3.0,3.0,89,0.00,,,0.00,Wunderground v.1.15,2013-10-05 08:47:00,
2013-10-05 03:52:00,71.8,68.4,29.85,South,190,2.0,4.0,89,0.00,,,0.00,Wunderground v.1.15,2013-10-05 08:52:00,
2013-10-05 03:57:00,71.8,68.4,29.85,South,169,2.0,5.0,89,0.00,,,0.00,Wunderground v.1.15,2013-10-05 08:57:00,
2013-10-05 04:02:00,71.8,68.4,29.85,South,169,2.0,5.0,89,0.00,,,0.00,Wunderground v.1.15,2013-10-05 09:02:00,
2013-10-05 04:07:00,72.0,68.6,29.85,SE,141,3.0,5.0,89,0.00,,,0.00,Wunderground v.1.15,2013-10-05 09:07:00,
2013-10-05 04:13:00,72.0,68.2,29.85,SE,135,0.0,5.0,88,0.00,,,0.00,Wunderground v.1.15,2013-10-05 09:13:00,
2013-10-05 04:18:00,72.0,68.2,29.85,SSE,158,2.0,3.0,88,0.00,,,0.00,Wunderground v.1.15,2013-10-05 09:18:00,
2013-10-05 04:23:00,71.8,68.1,29.85,SSE,155,0.0,3.0,88,0.00,,,0.00,Wunderground v.1.15,2013-10-05 09:23:00,
2013-10-05 04:28:00,71.8,68.4,29.85,SSE,155,1.0,3.0,89,0.00,,,0.00,Wunderground v.1.15,2013-10-05 09:28:00,
2013-10-05 04:33:00,71.8,68.4,29.85,South,169,1.0,4.0,89,0.00,,,0.00,Wunderground v.1.15,2013-10-05 09:33:00,
2013-10-05 04:38:00,71.8,68.4,29.85,South,169,0.0,2.0,89,0.00,,,0.00,Wunderground v.1.15,2013-10-05 09:38:00,
2013-10-05 04:43:00,71.8,68.4,29.85,SSE,167,1.0,3.0,89,0.00,,,0.00,Wunderground v.1.15,2013-10-05 09:43:00,
2013-10-05 04:48:00,71.8,68.4,29.85,SSE,167,0.0,2.0,89,0.00,,,0.00,Wunderground v.1.15,2013-10-05 09:48:00,
2013-10-05 04:53:00,71.8,68.4,29.85,SSE,167,0.0,2.0,89,0.00,,,0.00,Wunderground v.1.15,2013-10-05 09:53:00,
2013-10-05 04:58:00,71.1,66.7,29.87,NNW,348,5.0,8.0,86,0.00,,,0.00,Wunderground v.1.15,2013-10-05 09:58:00,
2013-10-05 05:03:00,69.4,62.6,29.87,NNW,345,2.0,8.0,79,0.00,,,0.00,Wunderground v.1.15,2013-10-05 10:03:00,
2013-10-05 05:08:00,68.3,61.9,29.87,North,349,5.0,10.0,80,0.00,,,0.00,Wunderground v.1.15,2013-10-05 10:08:00,
2013-10-05 05:13:00,67.3,61.3,29.90,NNW,340,4.0,10.0,81,0.00,,,0.00,Wunderground v.1.15,2013-10-05 10:13:00,
2013-10-05 05:18:00,66.4,61.1,29.90,NNW,348,2.0,6.0,83,0.00,,,0.00,Wunderground v.1.15,2013-10-05 10:18:00,
2013-10-05 05:23:00,66.0,61.4,29.90,NNW,348,3.0,6.0,85,0.00,,,0.00,Wunderground v.1.15,2013-10-05 10:23:00,
2013-10-05 05:28:00,65.5,61.2,29.89,North,355,2.0,5.0,86,0.00,,,0.00,Wunderground v.1.15,2013-10-05 10:28:00,
2013-10-05 05:33:00,65.2,61.6,29.89,NNE,18,3.0,5.0,88,0.00,,,0.01,Wunderground v.1.15,2013-10-05 10:33:00,
2013-10-05 05:38:00,65.0,61.7,29.89,North,360,2.0,5.0,89,0.00,,,0.01,Wunderground v.1.15,2013-10-05 10:38:00,
2013-10-05 05:43:00,64.7,61.4,29.90,North,355,0.0,6.0,89,0.06,,,0.02,Wunderground v.1.15,2013-10-05 10:43:00,
2013-10-05 05:48:00,64.5,61.5,29.90,NNW,348,2.0,4.0,90,0.14,,,0.04,Wunderground v.1.15,2013-10-05 10:48:00,
2013-10-05 05:53:00,64.2,61.5,29.90,NNW,348,0.0,4.0,91,0.26,,,0.06,Wunderground v.1.15,2013-10-05 10:53:00,
2013-10-05 05:58:00,64.2,61.5,29.91,NNW,348,0.0,1.0,91,0.42,,,0.09,Wunderground v.1.15,2013-10-05 10:58:00,
2013-10-05 06:03:00,64.0,61.6,29.91,NNW,348,0.0,1.0,92,0.09,,,0.09,Wunderground v.1.15,2013-10-05 11:03:00,
2013-10-05 06:08:00,64.0,61.6,29.91,NNW,348,0.0,0.0,92,0.09,,,0.10,Wunderground v.1.15,2013-10-05 11:08:00,
2013-10-05 06:13:00,64.0,61.6,29.90,NNW,348,0.0,0.0,92,0.06,,,0.10,Wunderground v.1.15,2013-10-05 11:13:00,
2013-10-05 06:19:00,63.9,61.5,29.90,NNW,348,0.0,0.0,92,0.04,,,0.10,Wunderground v.1.15,2013-10-05 11:19:00,
2013-10-05 06:24:00,63.9,61.8,29.90,NNW,348,0.0,0.0,93,0.00,,,0.10,Wunderground v.1.15,2013-10-05 11:24:00,
2013-10-05 06:29:00,63.9,61.8,29.90,NNW,348,0.0,0.0,93,0.00,,,0.10,Wunderground v.1.15,2013-10-05 11:29:00,
2013-10-05 06:34:00,64.0,61.9,29.90,NNW,348,0.0,0.0,93,0.11,,,0.11,Wunderground v.1.15,2013-10-05 11:34:00,
2013-10-05 06:39:00,64.0,62.2,29.90,NNW,348,0.0,0.0,94,0.08,,,0.11,Wunderground v.1.15,2013-10-05 11:39:00,
2013-10-05 06:44:00,64.0,62.2,29.90,NNW,348,0.0,0.0,94,0.05,,,0.11,Wunderground v.1.15,2013-10-05 11:44:00,
2013-10-05 06:49:00,64.0,62.2,29.90,NNW,348,0.0,0.0,94,0.00,,,0.11,Wunderground v.1.15,2013-10-05 11:49:00,
2013-10-05 06:54:00,64.0,62.2,29.90,NNW,348,0.0,1.0,94,0.00,,,0.11,Wunderground v.1.15,2013-10-05 11:54:00,
2013-10-05 06:59:00,64.2,62.4,29.91,NNW,348,0.0,0.0,94,0.00,,,0.11,Wunderground v.1.15,2013-10-05 11:59:00,
2013-10-05 07:04:00,64.2,62.4,29.91,NNW,348,0.0,2.0,94,0.00,,,0.11,Wunderground v.1.15,2013-10-05 12:04:00,
2013-10-05 07:09:00,64.2,62.4,29.91,NNW,348,0.0,0.0,94,0.00,,,0.12,Wunderground v.1.15,2013-10-05 12:09:00,
2013-10-05 07:14:00,64.2,62.4,29.90,North,349,0.0,3.0,94,0.08,,,0.13,Wunderground v.1.15,2013-10-05 12:14:00,
2013-10-05 07:19:00,64.2,62.7,29.90,North,349,0.0,3.0,95,0.18,,,0.15,Wunderground v.1.15,2013-10-05 12:19:00,
2013-10-05 07:24:00,64.0,62.5,29.90,North,349,0.0,3.0,95,0.10,,,0.16,Wunderground v.1.15,2013-10-05 12:24:00,
2013-10-05 07:29:00,64.0,62.5,29.90,North,349,0.0,0.0,95,0.12,,,0.17,Wunderground v.1.15,2013-10-05 12:29:00,
2013-10-05 07:34:00,64.2,62.7,29.90,North,349,3.0,3.0,95,0.18,,,0.18,Wunderground v.1.15,2013-10-05 12:34:00,
2013-10-05 07:39:00,64.0,62.5,29.90,North,349,0.0,4.0,95,0.08,,,0.18,Wunderground v.1.15,2013-10-05 12:39:00,
2013-10-05 07:44:00,64.0,62.5,29.90,North,349,0.0,4.0,95,0.07,,,0.19,Wunderground v.1.15,2013-10-05 12:44:00,
2013-10-05 07:49:00,64.0,62.5,29.90,North,349,0.0,1.0,95,0.07,,,0.20,Wunderground v.1.15,2013-10-05 12:49:00,
2013-10-05 07:54:00,64.0,62.5,29.90,North,349,0.0,2.0,95,0.13,,,0.21,Wunderground v.1.15,2013-10-05 12:54:00,
2013-10-05 07:59:00,63.9,62.4,29.90,North,349,2.0,2.0,95,1.45,,,0.29,Wunderground v.1.15,2013-10-05 12:59:00,
2013-10-05 08:04:00,63.9,62.4,29.90,North,349,0.0,4.0,95,0.38,,,0.34,Wunderground v.1.15,2013-10-05 13:04:00,
2013-10-05 08:09:00,63.9,62.4,29.93,North,349,0.0,1.0,95,0.23,,,0.37,Wunderground v.1.15,2013-10-05 13:09:00,
2013-10-05 08:14:00,63.9,62.7,29.93,North,349,0.0,2.0,96,0.79,,,0.45,Wunderground v.1.15,2013-10-05 13:14:00,
2013-10-05 08:19:00,63.9,62.7,29.93,North,349,0.0,0.0,96,0.76,,,0.48,Wunderground v.1.15,2013-10-05 13:19:00,
2013-10-05 08:24:00,63.7,62.5,29.91,North,349,0.0,1.0,96,0.24,,,0.51,Wunderground v.1.15,2013-10-05 13:24:00,
2013-10-05 08:29:00,63.7,62.5,29.91,North,349,0.0,0.0,96,0.15,,,0.53,Wunderground v.1.15,2013-10-05 13:29:00,
2013-10-05 08:35:00,63.7,62.5,29.91,North,349,0.0,0.0,96,0.19,,,0.54,Wunderground v.1.15,2013-10-05 13:35:00,
2013-10-05 08:40:00,63.9,62.7,29.90,North,349,0.0,0.0,96,0.21,,,0.56,Wunderground v.1.15,2013-10-05 13:40:00,
2013-10-05 08:44:00,63.7,62.5,29.90,North,349,0.0,0.0,96,0.13,,,0.57,Wunderground v.1.15,2013-10-05 13:44:00,
2013-10-05 08:49:00,63.7,62.5,29.90,North,349,0.0,0.0,96,0.16,,,0.58,Wunderground v.1.15,2013-10-05 13:49:00,
2013-10-05 08:54:00,63.5,62.3,29.91,North,349,0.0,0.0,96,0.19,,,0.60,Wunderground v.1.15,2013-10-05 13:54:00,
2013-10-05 08:59:00,63.5,62.3,29.91,North,349,0.0,0.0,96,0.27,,,0.62,Wunderground v.1.15,2013-10-05 13:59:00,
2013-10-05 09:04:00,63.7,62.5,29.91,North,349,0.0,0.0,96,0.26,,,0.64,Wunderground v.1.15,2013-10-05 14:04:00,
2013-10-05 09:10:00,63.7,62.5,29.91,North,349,0.0,0.0,96,0.24,,,0.66,Wunderground v.1.15,2013-10-05 14:10:00,
2013-10-05 09:15:00,63.7,62.5,29.91,SSE,167,0.0,4.0,96,0.26,,,0.68,Wunderground v.1.15,2013-10-05 14:15:00,
2013-10-05 09:20:00,63.7,62.5,29.91,SSE,164,0.0,5.0,96,0.24,,,0.71,Wunderground v.1.15,2013-10-05 14:20:00,
2013-10-05 09:25:00,63.7,62.5,29.92,SE,146,5.0,5.0,96,0.26,,,0.73,Wunderground v.1.15,2013-10-05 14:25:00,
2013-10-05 09:30:00,63.9,62.7,29.92,South,174,0.0,6.0,96,0.41,,,0.76,Wunderground v.1.15,2013-10-05 14:30:00,
2013-10-05 09:35:00,63.9,62.7,29.92,South,174,0.0,6.0,96,0.33,,,0.78,Wunderground v.1.15,2013-10-05 14:35:00,
2013-10-05 09:40:00,63.9,62.7,29.94,South,174,0.0,3.0,96,0.42,,,0.82,Wunderground v.1.15,2013-10-05 14:40:00,
2013-10-05 09:45:00,63.9,62.7,29.94,South,174,0.0,3.0,96,0.31,,,0.85,Wunderground v.1.15,2013-10-05 14:45:00,
2013-10-05 09:50:00,63.9,62.7,29.94,South,174,0.0,3.0,96,0.36,,,0.88,Wunderground v.1.15,2013-10-05 14:50:00,
2013-10-05 09:55:00,63.9,62.7,29.93,South,174,0.0,3.0,96,0.60,,,0.92,Wunderground v.1.15,2013-10-05 14:55:00,
2013-10-05 10:00:00,63.9,63.0,29.93,South,174,0.0,0.0,97,0.29,,,0.94,Wunderground v.1.15,2013-10-05 15:00:00,
2013-10-05 10:05:00,63.9,63.0,29.93,South,174,0.0,1.0,97,0.29,,,0.96,Wunderground v.1.15,2013-10-05 15:05:00,
2013-10-05 10:10:00,63.9,63.0,29.91,South,174,0.0,0.0,97,0.22,,,0.98,Wunderground v.1.15,2013-10-05 15:10:00,
2013-10-05 10:15:00,63.9,63.0,29.91,WNW,295,0.0,3.0,97,0.09,,,0.98,Wunderground v.1.15,2013-10-05 15:15:00,
2013-10-05 10:20:00,63.9,63.0,29.91,WNW,295,0.0,0.0,97,0.05,,,0.98,Wunderground v.1.15,2013-10-05 15:20:00,
2013-10-05 10:25:00,63.9,63.0,29.93,WNW,295,0.0,0.0,97,0.04,,,0.98,Wunderground v.1.15,2013-10-05 15:25:00,
2013-10-05 10:30:00,64.0,63.1,29.93,West,259,2.0,2.0,97,0.00,,,0.98,Wunderground v.1.15,2013-10-05 15:30:00,
2013-10-05 10:35:00,64.2,63.3,29.93,SSE,163,1.0,3.0,97,0.92,,,1.02,Wunderground v.1.15,2013-10-05 15:35:00,
2013-10-05 10:40:00,64.0,63.1,29.94,ESE,122,0.0,1.0,97,0.29,,,1.05,Wunderground v.1.15,2013-10-05 15:40:00,
2013-10-05 10:45:00,64.0,63.1,29.94,ESE,122,0.0,1.0,97,0.16,,,1.06,Wunderground v.1.15,2013-10-05 15:45:00,
2013-10-05 10:50:00,64.2,63.3,29.94,ESE,122,0.0,0.0,97,0.07,,,1.06,Wunderground v.1.15,2013-10-05 15:50:00,
2013-10-05 10:55:00,64.2,63.3,29.93,ESE,122,0.0,0.0,97,0.04,,,1.06,Wunderground v.1.15,2013-10-05 15:55:00,
2013-10-05 11:00:00,64.2,63.3,29.93,ESE,122,0.0,0.0,97,0.00,,,1.06,Wunderground v.1.15,2013-10-05 16:00:00,
2013-10-05 11:05:00,64.3,63.4,29.93,NNW,348,3.0,3.0,97,0.00,,,1.06,Wunderground v.1.15,2013-10-05 16:05:00,
2013-10-05 11:10:00,62.7,61.2,29.92,NNE,18,2.0,3.0,95,0.00,,,1.06,Wunderground v.1.15,2013-10-05 16:10:00,
2013-10-05 11:15:00,61.3,60.2,29.92,NNE,18,0.0,1.0,96,0.00,,,1.06,Wunderground v.1.15,2013-10-05 16:15:00,
2013-10-05 11:20:00,60.5,59.4,29.92,NNE,18,0.0,1.0,96,0.00,,,1.06,Wunderground v.1.15,2013-10-05 16:20:00,
2013-10-05 11:25:00,59.5,58.4,29.95,South,178,0.0,0.0,96,0.00,,,1.06,Wunderground v.1.15,2013-10-05 16:25:00,
2013-10-05 11:30:00,58.7,57.6,29.95,North,350,4.0,5.0,96,0.62,,,1.10,Wunderground v.1.15,2013-10-05 16:30:00,
2013-10-05 11:35:00,58.1,57.0,29.95,NNW,348,3.0,3.0,96,0.26,,,1.12,Wunderground v.1.15,2013-10-05 16:35:00,
2013-10-05 11:41:00,57.8,56.7,29.93,North,360,0.0,5.0,96,0.08,,,1.12,Wunderground v.1.15,2013-10-05 16:41:00,
2013-10-05 11:46:00,57.6,56.5,29.93,North,360,0.0,1.0,96,0.05,,,1.12,Wunderground v.1.15,2013-10-05 16:46:00,
2013-10-05 11:51:00,57.3,56.2,29.93,North,360,3.0,3.0,96,0.00,,,1.12,Wunderground v.1.15,2013-10-05 16:51:00,
2013-10-05 11:56:00,57.2,56.1,29.93,North,360,0.0,1.0,96,0.00,,,1.12,Wunderground v.1.15,2013-10-05 16:56:00,
2013-10-05 12:01:00,57.0,55.9,29.93,North,355,5.0,5.0,96,0.00,,,1.12,Wunderground v.1.15,2013-10-05 17:01:00,
2013-10-05 12:06:00,56.6,55.5,29.93,North,360,2.0,5.0,96,0.00,,,1.12,Wunderground v.1.15,2013-10-05 17:06:00,
2013-10-05 12:11:00,56.2,55.1,29.95,NNW,347,6.0,7.0,96,0.00,,,1.13,Wunderground v.1.15,2013-10-05 17:11:00,
2013-10-05 12:16:00,55.9,54.8,29.95,NNW,344,4.0,5.0,96,0.00,,,1.13,Wunderground v.1.15,2013-10-05 17:16:00,
2013-10-05 12:21:00,55.3,54.2,29.95,NNW,336,6.0,8.0,96,0.00,,,1.13,Wunderground v.1.15,2013-10-05 17:21:00,
2013-10-05 12:26:00,54.7,53.6,29.97,NNW,348,12.0,13.0,96,0.15,,,1.15,Wunderground v.1.15,2013-10-05 17:26:00,
2013-10-05 12:31:00,54.1,53.0,29.97,NNW,344,3.0,13.0,96,0.09,,,1.16,Wunderground v.1.15,2013-10-05 17:31:00,
2013-10-05 12:37:00,53.8,52.7,29.97,NNW,346,3.0,6.0,96,0.08,,,1.16,Wunderground v.1.15,2013-10-05 17:37:00,
2013-10-05 12:42:00,53.8,52.7,29.98,NNW,332,0.0,6.0,96,0.05,,,1.16,Wunderground v.1.15,2013-10-05 17:42:00,
2013-10-05 12:47:00,53.6,52.5,29.98,NNW,342,2.0,5.0,96,0.00,,,1.16,Wunderground v.1.15,2013-10-05 17:47:00,
2013-10-05 12:52:00,53.5,52.4,29.98,NNW,346,6.0,6.0,96,0.00,,,1.16,Wunderground v.1.15,2013-10-05 17:52:00,
2013-10-05 12:57:00,52.9,51.8,29.98,North,351,3.0,10.0,96,0.00,,,1.16,Wunderground v.1.15,2013-10-05 17:57:00,
2013-10-05 13:02:00,52.6,51.5,29.98,North,10,0.0,10.0,96,0.00,,,1.16,Wunderground v.1.15,2013-10-05 18:02:00,
2013-10-05 13:07:00,52.8,51.7,29.98,NNW,338,1.0,5.0,96,0.00,,,1.16,Wunderground v.1.15,2013-10-05 18:07:00,
2013-10-05 13:12:00,53.1,52.0,29.95,North,355,3.0,9.0,96,0.00,,,1.16,Wunderground v.1.15,2013-10-05 18:12:00,
2013-10-05 13:17:00,52.8,51.7,29.95,NNW,342,2.0,7.0,96,0.00,,,1.16,Wunderground v.1.15,2013-10-05 18:17:00,
2013-10-05 13:22:00,52.2,51.1,29.95,North,360,0.0,7.0,96,0.00,,,1.16,Wunderground v.1.15,2013-10-05 18:22:00,
2013-10-05 13:27:00,51.9,50.8,29.95,NNW,344,0.0,4.0,96,0.00,,,1.16,Wunderground v.1.15,2013-10-05 18:27:00,
2013-10-05 13:32:00,51.9,50.8,29.95,NNW,344,2.0,4.0,96,0.00,,,1.16,Wunderground v.1.15,2013-10-05 18:32:00,
2013-10-05 13:37:00,52.2,51.1,29.95,North,360,11.0,11.0,96,0.00,,,1.16,Wunderground v.1.15,2013-10-05 18:37:00,
2013-10-05 13:42:00,51.6,50.5,29.95,North,355,4.0,11.0,96,0.00,,,1.16,Wunderground v.1.15,2013-10-05 18:42:00,
2013-10-05 13:47:00,50.8,49.7,29.95,SSW,211,0.0,5.0,96,0.00,,,1.16,Wunderground v.1.15,2013-10-05 18:47:00,
2013-10-05 13:52:00,50.2,49.1,29.95,NNE,12,6.0,9.0,96,0.00,,,1.16,Wunderground v.1.15,2013-10-05 18:52:00,
2013-10-05 13:57:00,49.8,48.7,29.96,NNW,347,2.0,9.0,96,0.00,,,1.16,Wunderground v.1.15,2013-10-05 18:57:00,
2013-10-05 14:02:00,49.8,48.7,29.96,NNW,333,0.0,9.0,96,0.00,,,1.16,Wunderground v.1.15,2013-10-05 19:02:00,
2013-10-05 14:07:00,49.4,48.3,29.96,North,5,2.0,5.0,96,0.00,,,1.16,Wunderground v.1.15,2013-10-05 19:07:00,
2013-10-05 14:12:00,48.9,47.8,29.98,NNW,347,5.0,5.0,96,0.00,,,1.16,Wunderground v.1.15,2013-10-05 19:12:00,
2013-10-05 14:17:00,48.6,47.5,29.98,NNW,339,1.0,4.0,96,0.00,,,1.16,Wunderground v.1.15,2013-10-05 19:17:00,
2013-10-05 14:22:00,48.6,47.5,29.98,North,360,7.0,7.0,96,0.00,,,1.16,Wunderground v.1.15,2013-10-05 19:22:00,
2013-10-05 14:27:00,48.6,47.5,29.97,NNW,348,0.0,3.0,96,0.00,,,1.16,Wunderground v.1.15,2013-10-05 19:27:00,
2013-10-05 14:33:00,48.6,47.5,29.97,NNW,348,0.0,4.0,96,0.00,,,1.16,Wunderground v.1.15,2013-10-05 19:33:00,
2013-10-05 14:38:00,48.6,47.5,29.97,NNW,348,1.0,4.0,96,0.00,,,1.17,Wunderground v.1.15,2013-10-05 19:38:00,
2013-10-05 14:43:00,48.8,47.7,29.96,NNW,345,2.0,6.0,96,0.00,,,1.17,Wunderground v.1.15,2013-10-05 19:43:00,
2013-10-05 14:48:00,48.8,47.7,29.96,NNW,341,0.0,5.0,96,0.00,,,1.17,Wunderground v.1.15,2013-10-05 19:48:00,
2013-10-05 14:53:00,48.9,47.8,29.96,NNE,23,4.0,5.0,96,0.00,,,1.17,Wunderground v.1.15,2013-10-05 19:53:00,
2013-10-05 14:58:00,48.8,47.7,29.94,NNE,23,0.0,1.0,96,0.00,,,1.17,Wunderground v.1.15,2013-10-05 19:58:00,
2013-10-05 15:03:00,48.9,47.8,29.94,North,355,0.0,3.0,96,0.00,,,1.17,Wunderground v.1.15,2013-10-05 20:03:00,
2013-10-05 15:08:00,49.2,48.1,29.94,North,355,0.0,4.0,96,0.00,,,1.17,Wunderground v.1.15,2013-10-05 20:08:00,
2013-10-05 15:13:00,49.1,48.0,29.96,North,355,2.0,4.0,96,0.00,,,1.18,Wunderground v.1.15,2013-10-05 20:13:00,
2013-10-05 15:18:00,48.9,47.8,29.96,North,355,0.0,3.0,96,0.00,,,1.18,Wunderground v.1.15,2013-10-05 20:18:00,
2013-10-05 15:23:00,49.1,48.0,29.96,North,355,0.0,4.0,96,0.06,,,1.19,Wunderground v.1.15,2013-10-05 20:23:00,
2013-10-05 15:28:00,49.1,48.0,29.95,North,355,0.0,2.0,96,0.06,,,1.19,Wunderground v.1.15,2013-10-05 20:28:00,
2013-10-05 15:33:00,49.2,48.1,29.95,North,11,0.0,3.0,96,0.04,,,1.19,Wunderground v.1.15,2013-10-05 20:33:00,
2013-10-05 15:38:00,49.2,48.1,29.95,North,5,1.0,3.0,96,0.00,,,1.19,Wunderground v.1.15,2013-10-05 20:38:00,
2013-10-05 15:43:00,49.4,48.3,29.95,North,355,0.0,4.0,96,0.00,,,1.19,Wunderground v.1.15,2013-10-05 20:43:00,
2013-10-05 15:48:00,49.2,48.1,29.95,North,355,0.0,5.0,96,0.00,,,1.19,Wunderground v.1.15,2013-10-05 20:48:00,
2013-10-05 15:54:00,48.9,47.8,29.95,North,355,0.0,5.0,96,0.00,,,1.19,Wunderground v.1.15,2013-10-05 20:54:00,
2013-10-05 15:59:00,48.9,47.8,29.93,North,355,0.0,1.0,96,0.00,,,1.19,Wunderground v.1.15,2013-10-05 20:59:00,
2013-10-05 16:04:00,48.6,47.5,29.93,North,355,0.0,1.0,96,0.00,,,1.19,Wunderground v.1.15,2013-10-05 21:04:00,
2013-10-05 16:09:00,48.8,47.7,29.93,North,355,2.0,2.0,96,0.00,,,1.19,Wunderground v.1.15,2013-10-05 21:09:00,
2013-10-05 16:14:00,48.9,47.8,29.97,North,355,2.0,4.0,96,0.00,,,1.19,Wunderground v.1.15,2013-10-05 21:14:00,
2013-10-05 16:19:00,48.8,47.7,29.97,NNW,336,5.0,6.0,96,0.00,,,1.19,Wunderground v.1.15,2013-10-05 21:19:00,
2013-10-05 16:24:00,48.5,47.4,29.97,NNW,342,1.0,6.0,96,0.00,,,1.19,Wunderground v.1.15,2013-10-05 21:24:00,
2013-10-05 16:29:00,48.5,47.4,29.95,NNW,342,1.0,3.0,96,0.00,,,1.19,Wunderground v.1.15,2013-10-05 21:29:00,
2013-10-05 16:34:00,48.6,47.5,29.95,NNW,342,0.0,3.0,96,0.00,,,1.20,Wunderground v.1.15,2013-10-05 21:34:00,
2013-10-05 16:39:00,48.6,47.5,29.95,NNW,342,0.0,0.0,96,0.13,,,1.21,Wunderground v.1.15,2013-10-05 21:39:00,
2013-10-05 16:44:00,48.5,47.4,29.96,SSW,192,0.0,3.0,96,0.16,,,1.22,Wunderground v.1.15,2013-10-05 21:44:00,
2013-10-05 16:49:00,48.6,47.5,29.96,SSW,192,0.0,0.0,96,0.08,,,1.22,Wunderground v.1.15,2013-10-05 21:49:00,
2013-10-05 16:54:00,48.5,47.4,29.96,SSW,195,0.0,2.0,96,0.05,,,1.22,Wunderground v.1.15,2013-10-05 21:54:00,
2013-10-05 16:59:00,48.6,47.5,29.95,SSW,195,0.0,0.0,96,0.00,,,1.22,Wunderground v.1.15,2013-10-05 21:59:00,
2013-10-05 17:04:00,48.6,47.5,29.95,SSW,195,0.0,0.0,96,0.00,,,1.22,Wunderground v.1.15,2013-10-05 22:04:00,
2013-10-05 17:09:00,48.6,47.5,29.95,SSW,195,0.0,0.0,96,0.00,,,1.22,Wunderground v.1.15,2013-10-05 22:09:00,
2013-10-05 17:14:00,48.6,47.5,29.94,SSW,195,0.0,0.0,96,0.00,,,1.22,Wunderground v.1.15,2013-10-05 22:14:00,
2013-10-05 17:19:00,48.6,47.5,29.94,SSW,195,0.0,0.0,96,0.00,,,1.22,Wunderground v.1.15,2013-10-05 22:19:00,
2013-10-05 17:24:00,48.6,47.5,29.94,SSW,195,0.0,0.0,96,0.00,,,1.22,Wunderground v.1.15,2013-10-05 22:24:00,
2013-10-05 17:29:00,48.5,47.4,29.97,SSW,195,0.0,0.0,96,0.00,,,1.22,Wunderground v.1.15,2013-10-05 22:29:00,
2013-10-05 17:34:00,48.8,47.7,29.97,SSW,195,0.0,0.0,96,0.00,,,1.22,Wunderground v.1.15,2013-10-05 22:34:00,
2013-10-05 17:39:00,48.9,47.8,29.97,SSW,195,0.0,3.0,96,0.00,,,1.22,Wunderground v.1.15,2013-10-05 22:39:00,
2013-10-05 17:44:00,49.1,48.0,29.95,South,178,0.0,3.0,96,0.00,,,1.22,Wunderground v.1.15,2013-10-05 22:44:00,
2013-10-05 17:49:00,49.2,48.1,29.95,South,178,0.0,0.0,96,0.00,,,1.22,Wunderground v.1.15,2013-10-05 22:49:00,
2013-10-05 17:54:00,49.2,48.1,29.95,South,178,0.0,0.0,96,0.00,,,1.22,Wunderground v.1.15,2013-10-05 22:54:00,
2013-10-05 17:59:00,49.4,48.3,29.95,South,178,0.0,0.0,96,0.00,,,1.22,Wunderground v.1.15,2013-10-05 22:59:00,
2013-10-05 18:04:00,49.4,48.3,29.95,South,178,0.0,0.0,96,0.00,,,1.22,Wunderground v.1.15,2013-10-05 23:04:00,
2013-10-05 18:09:00,49.2,48.1,29.96,South,178,0.0,1.0,96,0.00,,,1.22,Wunderground v.1.15,2013-10-05 23:09:00,
2013-10-05 18:14:00,49.4,48.3,29.96,South,178,0.0,1.0,96,0.00,,,1.22,Wunderground v.1.15,2013-10-05 23:14:00,
2013-10-05 18:19:00,49.4,48.3,29.96,South,178,0.0,0.0,96,0.00,,,1.22,Wunderground v.1.15,2013-10-05 23:19:00,
2013-10-05 18:24:00,49.5,48.4,29.96,South,178,0.0,0.0,96,0.00,,,1.22,Wunderground v.1.15,2013-10-05 23:24:00,
2013-10-05 18:29:00,49.5,48.4,29.96,SSW,196,0.0,1.0,96,0.00,,,1.22,Wunderground v.1.15,2013-10-05 23:29:00,
2013-10-05 18:34:00,49.5,48.4,29.96,SSW,196,0.0,1.0,96,0.00,,,1.22,Wunderground v.1.15,2013-10-05 23:34:00,
2013-10-05 18:40:00,49.4,48.3,29.97,SSW,196,0.0,0.0,96,0.00,,,1.22,Wunderground v.1.15,2013-10-05 23:40:00,
2013-10-05 18:45:00,49.4,48.3,29.97,SSW,196,0.0,0.0,96,0.00,,,1.22,Wunderground v.1.15,2013-10-05 23:45:00,
2013-10-05 18:50:00,49.2,48.1,29.97,SSW,196,0.0,0.0,96,0.00,,,1.22,Wunderground v.1.15,2013-10-05 23:50:00,
2013-10-05 18:55:00,49.4,48.3,29.97,SSW,196,0.0,0.0,96,0.00,,,1.22,Wunderground v.1.15,2013-10-05 23:55:00,
2013-10-05 19:00:00,49.2,48.1,29.97,SSW,196,0.0,0.0,96,0.00,,,1.22,Wunderground v.1.15,2013-10-06 00:00:00,
2013-10-05 19:05:00,49.2,48.1,29.97,SSW,196,0.0,0.0,96,0.00,,,1.22,Wunderground v.1.15,2013-10-06 00:05:00,
2013-10-05 19:10:00,49.1,48.0,29.97,SSW,196,0.0,0.0,96,0.00,,,1.22,Wunderground v.1.15,2013-10-06 00:10:00,
2013-10-05 19:15:00,49.1,48.0,29.97,South,188,0.0,2.0,96,0.00,,,1.22,Wunderground v.1.15,2013-10-06 00:15:00,
2013-10-05 19:20:00,49.1,48.0,29.97,South,188,0.0,2.0,96,0.00,,,1.22,Wunderground v.1.15,2013-10-06 00:20:00,
2013-10-05 19:25:00,48.9,47.8,29.97,South,188,0.0,0.0,96,0.00,,,1.22,Wunderground v.1.15,2013-10-06 00:25:00,
2013-10-05 19:30:00,48.9,47.8,29.97,South,188,0.0,0.0,96,0.00,,,1.22,Wunderground v.1.15,2013-10-06 00:30:00,
2013-10-05 19:35:00,48.9,47.8,29.97,South,188,0.0,0.0,96,0.00,,,1.22,Wunderground v.1.15,2013-10-06 00:35:00,
2013-10-05 19:40:00,48.9,47.8,29.97,South,188,0.0,0.0,96,0.00,,,1.22,Wunderground v.1.15,2013-10-06 00:40:00,
2013-10-05 19:45:00,48.9,47.8,29.97,South,188,0.0,0.0,96,0.00,,,1.22,Wunderground v.1.15,2013-10-06 00:45:00,
2013-10-05 19:51:00,48.9,47.8,29.97,South,188,0.0,0.0,96,0.00,,,1.22,Wunderground v.1.15,2013-10-06 00:51:00,
2013-10-05 19:56:00,49.1,48.0,29.97,South,188,0.0,0.0,96,0.00,,,1.22,Wunderground v.1.15,2013-10-06 00:56:00,
2013-10-05 20:01:00,49.1,48.0,29.97,South,188,0.0,0.0,96,0.00,,,1.22,Wunderground v.1.15,2013-10-06 01:01:00,
2013-10-05 20:06:00,49.2,48.1,29.97,South,182,0.0,3.0,96,0.00,,,1.22,Wunderground v.1.15,2013-10-06 01:06:00,
2013-10-05 20:11:00,49.2,48.1,29.97,South,190,0.0,3.0,96,0.00,,,1.22,Wunderground v.1.15,2013-10-06 01:11:00,
2013-10-05 20:16:00,49.2,48.1,29.97,South,190,0.0,0.0,96,0.00,,,1.22,Wunderground v.1.15,2013-10-06 01:16:00,
2013-10-05 20:21:00,49.2,48.1,29.97,South,190,0.0,0.0,96,0.00,,,1.22,Wunderground v.1.15,2013-10-06 01:21:00,
2013-10-05 20:26:00,49.2,48.1,29.97,South,190,0.0,0.0,96,0.00,,,1.22,Wunderground v.1.15,2013-10-06 01:26:00,
2013-10-05 20:31:00,49.1,48.0,29.97,South,190,0.0,0.0,96,0.00,,,1.22,Wunderground v.1.15,2013-10-06 01:31:00,
2013-10-05 20:36:00,49.1,48.0,29.97,South,190,0.0,0.0,96,0.00,,,1.22,Wunderground v.1.15,2013-10-06 01:36:00,
2013-10-05 20:41:00,49.1,48.0,29.98,South,190,0.0,0.0,96,0.00,,,1.22,Wunderground v.1.15,2013-10-06 01:41:00,
2013-10-05 20:46:00,49.1,48.0,29.98,South,190,0.0,2.0,96,0.00,,,1.22,Wunderground v.1.15,2013-10-06 01:46:00,
2013-10-05 20:51:00,49.1,48.0,29.98,South,190,0.0,2.0,96,0.00,,,1.22,Wunderground v.1.15,2013-10-06 01:51:00,
2013-10-05 20:56:00,49.2,48.1,29.98,South,190,0.0,0.0,96,0.00,,,1.22,Wunderground v.1.15,2013-10-06 01:56:00,
2013-10-05 21:01:00,49.2,48.1,29.98,South,190,0.0,2.0,96,0.00,,,1.22,Wunderground v.1.15,2013-10-06 02:01:00,
2013-10-05 21:06:00,49.2,48.1,29.98,South,190,0.0,0.0,96,0.00,,,1.22,Wunderground v.1.15,2013-10-06 02:06:00,
2013-10-05 21:11:00,49.2,48.1,29.99,South,190,0.0,0.0,96,0.00,,,1.22,Wunderground v.1.15,2013-10-06 02:11:00,
2013-10-05 21:16:00,49.2,48.1,29.99,South,190,0.0,0.0,96,0.00,,,1.22,Wunderground v.1.15,2013-10-06 02:16:00,
2013-10-05 21:21:00,49.2,48.1,29.99,South,190,0.0,0.0,96,0.00,,,1.22,Wunderground v.1.15,2013-10-06 02:21:00,
2013-10-05 21:26:00,49.2,48.1,29.99,South,190,0.0,1.0,96,0.00,,,1.22,Wunderground v.1.15,2013-10-06 02:26:00,
2013-10-05 21:31:00,49.2,48.1,29.99,South,190,0.0,1.0,96,0.00,,,1.22,Wunderground v.1.15,2013-10-06 02:31:00,
2013-10-05 21:36:00,49.2,48.1,29.99,South,190,0.0,0.0,96,0.00,,,1.22,Wunderground v.1.15,2013-10-06 02:36:00,
2013-10-05 21:41:00,49.2,48.1,29.98,South,190,0.0,0.0,96,0.00,,,1.22,Wunderground v.1.15,2013-10-06 02:41:00,
2013-10-05 21:46:00,49.1,48.0,29.98,South,190,0.0,0.0,96,0.00,,,1.22,Wunderground v.1.15,2013-10-06 02:46:00,
2013-10-05 21:51:00,48.9,47.8,29.98,South,190,0.0,0.0,96,0.00,,,1.22,Wunderground v.1.15,2013-10-06 02:51:00,
2013-10-05 21:56:00,48.6,47.5,29.97,South,190,0.0,0.0,96,0.00,,,1.22,Wunderground v.1.15,2013-10-06 02:56:00,
2013-10-05 22:01:00,48.6,47.5,29.97,South,190,0.0,0.0,96,0.00,,,1.22,Wunderground v.1.15,2013-10-06 03:01:00,
2013-10-05 22:05:00,47.7,46.6,29.98,South,190,0.0,0.0,96,0.00,,,1.22,Wunderground v.1.15,2013-10-06 03:05:00,
2013-10-05 22:06:00,48.6,47.5,29.97,South,190,0.0,0.0,96,0.00,,,1.22,Wunderground v.1.15,2013-10-06 03:06:00,
2013-10-05 22:07:00,47.7,46.6,29.98,South,190,0.0,0.0,96,0.00,,,1.22,Wunderground v.1.15,2013-10-06 03:07:00,
2013-10-05 22:08:00,47.7,46.9,29.98,South,190,0.0,0.0,97,0.00,,,1.22,Wunderground v.1.15,2013-10-06 03:08:00,
2013-10-05 22:09:00,47.7,46.9,29.98,South,190,0.0,0.0,97,0.00,,,1.22,Wunderground v.1.15,2013-10-06 03:09:00,
2013-10-05 22:10:00,47.7,46.9,29.98,South,190,0.0,0.0,97,0.00,,,1.22,Wunderground v.1.15,2013-10-06 03:10:00,
2013-10-05 22:11:00,48.6,47.5,29.98,South,190,0.0,0.0,96,0.00,,,1.22,Wunderground v.1.15,2013-10-06 03:11:00,
2013-10-05 22:12:00,47.7,46.9,29.98,South,190,0.0,0.0,97,0.00,,,1.22,Wunderground v.1.15,2013-10-06 03:12:00,
2013-10-05 22:13:00,47.7,46.9,29.98,South,190,0.0,0.0,97,0.00,,,1.22,Wunderground v.1.15,2013-10-06 03:13:00,
2013-10-05 22:14:00,47.7,46.9,29.98,South,190,0.0,0.0,97,0.00,,,1.22,Wunderground v.1.15,2013-10-06 03:14:00,
2013-10-05 22:15:00,47.7,46.9,29.98,South,190,0.0,0.0,97,0.00,,,1.22,Wunderground v.1.15,2013-10-06 03:15:00,
2013-10-05 22:16:00,48.6,47.5,29.98,South,190,0.0,0.0,96,0.00,,,1.22,Wunderground v.1.15,2013-10-06 03:16:00,
2013-10-05 22:18:00,47.9,47.1,29.98,South,190,0.0,0.0,97,0.00,,,1.22,Wunderground v.1.15,2013-10-06 03:18:00,
2013-10-05 22:19:00,47.9,47.1,29.98,South,190,0.0,0.0,97,0.00,,,1.22,Wunderground v.1.15,2013-10-06 03:19:00,
2013-10-05 22:21:00,47.9,47.1,29.98,South,190,0.0,0.0,97,0.00,,,1.22,Wunderground v.1.15,2013-10-06 03:21:00,
2013-10-05 22:22:00,48.6,47.8,29.98,South,190,0.0,0.0,97,0.00,,,1.22,Wunderground v.1.15,2013-10-06 03:22:00,
2013-10-05 22:23:00,47.9,47.1,29.98,South,190,0.0,0.0,97,0.00,,,1.22,Wunderground v.1.15,2013-10-06 03:23:00,
2013-10-05 22:24:00,47.9,47.1,29.98,South,190,0.0,0.0,97,0.00,,,1.22,Wunderground v.1.15,2013-10-06 03:24:00,
2013-10-05 22:26:00,47.9,47.1,29.98,South,190,0.0,0.0,97,0.00,,,1.22,Wunderground v.1.15,2013-10-06 03:26:00,
2013-10-05 22:27:00,48.5,47.4,29.97,South,190,0.0,0.0,96,0.00,,,1.22,Wunderground v.1.15,2013-10-06 03:27:00,
2013-10-05 22:32:00,48.3,47.2,29.97,South,190,0.0,0.0,96,0.00,,,1.22,Wunderground v.1.15,2013-10-06 03:32:00,
2013-10-05 22:37:00,48.2,47.1,29.97,South,190,0.0,0.0,96,0.00,,,1.22,Wunderground v.1.15,2013-10-06 03:37:00,
2013-10-05 22:42:00,48.0,46.9,29.98,South,190,0.0,0.0,96,0.00,,,1.22,Wunderground v.1.15,2013-10-06 03:42:00,
2013-10-05 22:47:00,47.9,46.8,29.98,South,190,0.0,0.0,96,0.00,,,1.22,Wunderground v.1.15,2013-10-06 03:47:00,
2013-10-05 22:52:00,47.7,46.6,29.98,South,190,0.0,0.0,96,0.00,,,1.22,Wunderground v.1.15,2013-10-06 03:52:00,
2013-10-05 22:57:00,47.7,46.6,29.98,South,190,0.0,0.0,96,0.00,,,1.22,Wunderground v.1.15,2013-10-06 03:57:00,
2013-10-05 23:08:00,47.7,46.9,29.98,South,190,0.0,0.0,97,0.00,,,1.22,Wunderground v.1.15,2013-10-06 04:08:00,
2013-10-05 23:13:00,47.9,47.1,29.98,South,190,0.0,0.0,97,0.00,,,1.22,Wunderground v.1.15,2013-10-06 04:13:00,
2013-10-05 23:18:00,47.9,47.1,29.98,South,190,0.0,0.0,97,0.00,,,1.22,Wunderground v.1.15,2013-10-06 04:18:00,
2013-10-05 23:23:00,48.0,47.2,29.98,South,190,0.0,0.0,97,0.00,,,1.22,Wunderground v.1.15,2013-10-06 04:23:00,
2013-10-05 23:28:00,48.0,47.2,29.98,South,190,0.0,0.0,97,0.00,,,1.22,Wunderground v.1.15,2013-10-06 04:28:00,
2013-10-05 23:33:00,48.0,47.2,29.98,South,190,0.0,0.0,97,0.00,,,1.22,Wunderground v.1.15,2013-10-06 04:33:00,
2013-10-05 23:38:00,48.0,47.2,29.98,South,190,0.0,0.0,97,0.00,,,1.22,Wunderground v.1.15,2013-10-06 04:38:00,
2013-10-05 23:43:00,47.9,47.1,29.97,South,190,0.0,0.0,97,0.00,,,1.22,Wunderground v.1.15,2013-10-06 04:43:00,
2013-10-05 23:48:00,47.9,47.1,29.97,South,190,0.0,0.0,97,0.00,,,1.22,Wunderground v.1.15,2013-10-06 04:48:00,
2013-10-05 23:53:00,47.9,47.1,29.97,South,190,0.0,0.0,97,0.00,,,1.22,Wunderground v.1.15,2013-10-06 04:53:00,
2013-10-05 23:59:00,47.9,47.1,29.97,South,190,0.0,0.0,97,0.00,,,1.22,Wunderground v.1.15,2013-10-06 04:59:00,